VTBU/UTP METAR and TAF weather

Enter ICAO airport designator
Station Type Date Time Source
VTBU METAR 2020/01/19 14:30 UTC NOAA

VTBU 191430Z 17004KT 3000 BR FEW020 28/23 Q1013 NOSIG


Station Type Date Time Source
VTBU Decoded METAR 2020/01/19 14:30 UTC NOAA

Rayong, Thailand (VTBU) 12-38N 101-21E 5M
Jan 19, 2020 - 09:30 AM EST / 2020.01.19 1430 UTC
Wind: from the S (170 degrees) at 5 MPH (4 KT):0
Visibility: 1 mile(s):0
Sky conditions: mostly clear
Weather: mist
Temperature: 82 F (28 C)
Dew Point: 73 F (23 C)
Relative Humidity: 74%
Pressure (altimeter): 29.91 in. Hg (1013 hPa)
ob: VTBU 191430Z 17004KT 3000 BR FEW020 28/23 Q1013 NOSIG
cycle: 14

Station Type Date Time Source
VTBU TAF 2020/01/19 12:37 UTC NOAA

TAF VTBU 191100Z 1912/2012 36004KT 3000 BR FEW020
BECMG 2003/2005 18010KT 5000 BR

Example: see airport list